Sausalito, California
Current Conditions -  °F | °C
As of 4:53 PM on Friday 28 Nov 2014 (Local Time) from KOAK Reporting Station
Scattered Clouds Scattered Clouds  
Wind Chill: 59°   Ceiling: Unl
Heat Index: 59°   Visibility: 10mi
Dew Point: 51°   Wind: 6mph
Humidity: 75%   Direction: 270°W
Pressure: 29.89"   Gusts: NA
Location:  37.86°N, 122.48°W
Report Text: KOAK 290053Z 27005KT 10SM FEW012 SCT150 15/11 A2989 RMK AO2 SLP121 T01500106
Loading
Personal Weather Stations






























Interactive Weather Map New forecast layout! Learn more

10-Day Weather Forecast

Advertisements
Track Severe Weather on mobile